Wallingford, Pennsylvania
Current Conditions -  °F | °C
As of 5:54 PM on Wednesday 22 Oct 2014 (Local Time) from KPHL Reporting Station
Light Rain Light Rain  
Wind Chill: 55°   Ceiling: 3400
Heat Index: 55°   Visibility: 10mi
Dew Point: 50°   Wind: 14mph
Humidity: 83%   Direction: 360°N
Pressure: 29.85"   Gusts: NA
Location:  39.89°N, 75.36°W
Report Text: KPHL 222154Z 36012KT 10SM -RA SCT026 OVC034 13/10 A2985 RMK AO2 SLP106 P0000 T01280100 $
Loading
Personal Weather Stations






























Interactive Weather Map
Tropical Storm Tracking
New forecast layout! Learn more

10-Day Weather Forecast

Advertisements
Track Severe Weather on mobile